ULK2600 EDNY-LGSA
Flight info
| Callsign | ULK2600 |
|---|---|
| Flight time | 2h 40m |
| Altitude | 37000 |
| Route | BEMKI1E BEMKI L607 ELMEM N606 OTRES T307 DIRAB DCT VESAL DCT PEVAL DCT NAKIT DCT LOS DCT SAL DCT AIOSA DCT ENOXA DCT XAPAT DCT TIGRA UL995 KRK UA14 ARA UL612 TRL UJ65 SOKRI |
| Aircraft | A319/M-SDE3FGHIRWY/LB1 |
Departure
| Time | 2026-04-26 08:16 |
|---|---|
| Airport | Bodensee Airport Friedrichshafen (EDNY) |
Arrival
| Time | 2026-04-26 10:56 |
|---|---|
| Airport | Chania International Airport (LGSA) |
| Time | Latitude | Longitude | Altitude | Speed | Heading |
|---|---|---|---|---|---|
| 2026-04-26 07:42 | 47.67336 | 9.52315 | 1369 ft | 0 kts | 193° |
| 2026-04-26 08:10 | 47.67335 | 9.52314 | 1368 ft | 0 kts | 204° |
| 2026-04-26 08:11 | 47.67334 | 9.52307 | 1367 ft | 1 kts | 243° |
| 2026-04-26 08:11 | 47.67340 | 9.52296 | 1368 ft | 2 kts | 324° |
| 2026-04-26 08:11 | 47.67368 | 9.52259 | 1367 ft | 9 kts | 285° |
| 2026-04-26 08:11 | 47.67343 | 9.52170 | 1367 ft | 10 kts | 240° |
| 2026-04-26 08:12 | 47.67306 | 9.52075 | 1367 ft | 12 kts | 240° |
| 2026-04-26 08:12 | 47.67258 | 9.51950 | 1367 ft | 16 kts | 240° |
| 2026-04-26 08:12 | 47.67194 | 9.51785 | 1364 ft | 21 kts | 240° |
| 2026-04-26 08:12 | 47.67118 | 9.51587 | 1362 ft | 22 kts | 240° |
| 2026-04-26 08:13 | 47.67036 | 9.51377 | 1359 ft | 24 kts | 239° |
| 2026-04-26 08:13 | 47.66949 | 9.51152 | 1355 ft | 26 kts | 240° |
| 2026-04-26 08:13 | 47.66855 | 9.50909 | 1351 ft | 28 kts | 240° |
| 2026-04-26 08:13 | 47.66723 | 9.50713 | 1352 ft | 23 kts | 210° |
| 2026-04-26 08:14 | 47.66622 | 9.50531 | 1350 ft | 24 kts | 240° |
| 2026-04-26 08:14 | 47.66539 | 9.50315 | 1347 ft | 25 kts | 240° |
| 2026-04-26 08:14 | 47.66474 | 9.50116 | 1344 ft | 18 kts | 263° |
| 2026-04-26 08:14 | 47.66518 | 9.49943 | 1343 ft | 19 kts | 300° |
| 2026-04-26 08:15 | 47.66607 | 9.49828 | 1343 ft | 18 kts | 13° |
| 2026-04-26 08:15 | 47.66682 | 9.49989 | 1348 ft | 29 kts | 60° |
| 2026-04-26 08:15 | 47.66920 | 9.50601 | 1351 ft | 106 kts | 60° |
| 2026-04-26 08:15 | 47.67370 | 9.51772 | 1588 ft | 136 kts | 60° |
| 2026-04-26 08:16 | 47.67819 | 9.52992 | 2227 ft | 133 kts | 58° |
| 2026-04-26 08:16 | 47.68280 | 9.54192 | 2826 ft | 135 kts | 57° |
| 2026-04-26 08:16 | 47.68787 | 9.55483 | 3179 ft | 156 kts | 57° |
| 2026-04-26 08:16 | 47.69395 | 9.57021 | 3397 ft | 188 kts | 58° |
| 2026-04-26 08:17 | 47.70074 | 9.58757 | 3849 ft | 197 kts | 58° |
| 2026-04-26 08:17 | 47.70753 | 9.60508 | 4718 ft | 195 kts | 58° |
| 2026-04-26 08:17 | 47.71287 | 9.62344 | 5489 ft | 201 kts | 75° |
| 2026-04-26 08:17 | 47.71440 | 9.64504 | 6066 ft | 216 kts | 83° |
| 2026-04-26 08:18 | 47.71544 | 9.66755 | 6866 ft | 220 kts | 83° |
| 2026-04-26 08:18 | 47.71647 | 9.69040 | 7685 ft | 223 kts | 83° |
| 2026-04-26 08:18 | 47.71751 | 9.71358 | 8510 ft | 226 kts | 83° |
| 2026-04-26 08:18 | 47.71857 | 9.73709 | 9333 ft | 229 kts | 83° |
| 2026-04-26 08:19 | 47.71965 | 9.76088 | 10138 ft | 232 kts | 83° |
| 2026-04-26 08:19 | 47.72075 | 9.78495 | 10928 ft | 235 kts | 83° |
| 2026-04-26 08:19 | 47.72075 | 9.80119 | 11436 ft | 240 kts | 92° |
| 2026-04-26 08:19 | 47.71435 | 9.83390 | 12194 ft | 263 kts | 114° |
| 2026-04-26 08:20 | 47.70804 | 9.85000 | 12377 ft | 280 kts | 117° |
| 2026-04-26 08:20 | 47.69757 | 9.87587 | 12631 ft | 304 kts | 118° |
| 2026-04-26 08:20 | 47.68627 | 9.90371 | 12975 ft | 322 kts | 118° |
| 2026-04-26 08:20 | 47.67458 | 9.93249 | 13623 ft | 328 kts | 118° |
| 2026-04-26 08:21 | 47.66368 | 9.96235 | 14320 ft | 330 kts | 111° |
| 2026-04-26 08:21 | 47.65424 | 9.99352 | 15020 ft | 333 kts | 111° |
| 2026-04-26 08:21 | 47.64472 | 10.02504 | 15702 ft | 337 kts | 111° |
| 2026-04-26 08:21 | 47.63510 | 10.05687 | 16367 ft | 340 kts | 111° |
| 2026-04-26 08:22 | 47.62534 | 10.08900 | 17013 ft | 343 kts | 111° |
| 2026-04-26 08:22 | 47.61549 | 10.12138 | 17637 ft | 347 kts | 111° |
| 2026-04-26 08:22 | 47.60552 | 10.15411 | 18266 ft | 350 kts | 111° |
| 2026-04-26 08:22 | 47.59549 | 10.18714 | 18872 ft | 353 kts | 111° |
| 2026-04-26 08:23 | 47.58536 | 10.22046 | 19471 ft | 356 kts | 111° |
| 2026-04-26 08:23 | 47.57513 | 10.25400 | 20068 ft | 359 kts | 111° |
| 2026-04-26 08:23 | 47.56300 | 10.28673 | 20639 ft | 366 kts | 121° |
| 2026-04-26 08:23 | 47.54711 | 10.31578 | 21189 ft | 372 kts | 131° |
| 2026-04-26 08:24 | 47.52706 | 10.34119 | 21746 ft | 378 kts | 141° |
| 2026-04-26 08:24 | 47.50606 | 10.36397 | 22295 ft | 381 kts | 141° |
| 2026-04-26 08:24 | 47.48466 | 10.38728 | 22835 ft | 384 kts | 141° |
| 2026-04-26 08:24 | 47.46308 | 10.41087 | 23366 ft | 387 kts | 141° |
| 2026-04-26 08:25 | 47.44137 | 10.43463 | 23880 ft | 390 kts | 141° |
| 2026-04-26 08:25 | 47.41951 | 10.45854 | 24360 ft | 392 kts | 141° |
| 2026-04-26 08:25 | 47.39709 | 10.48184 | 24821 ft | 397 kts | 146° |
| 2026-04-26 08:25 | 47.37277 | 10.50158 | 25293 ft | 401 kts | 149° |
| 2026-04-26 08:26 | 47.34811 | 10.52105 | 25738 ft | 403 kts | 149° |
| 2026-04-26 08:26 | 47.32334 | 10.54062 | 26181 ft | 406 kts | 149° |
| 2026-04-26 08:26 | 47.29837 | 10.56043 | 26601 ft | 408 kts | 149° |
| 2026-04-26 08:26 | 47.27329 | 10.58038 | 27019 ft | 411 kts | 149° |
| 2026-04-26 08:27 | 47.24805 | 10.60044 | 27435 ft | 414 kts | 149° |
| 2026-04-26 08:27 | 47.22262 | 10.62062 | 27826 ft | 416 kts | 149° |
| 2026-04-26 08:27 | 47.19708 | 10.64083 | 28232 ft | 419 kts | 149° |
| 2026-04-26 08:27 | 47.17115 | 10.66075 | 28609 ft | 422 kts | 153° |
| 2026-04-26 08:28 | 47.14376 | 10.67675 | 28974 ft | 425 kts | 157° |
| 2026-04-26 08:28 | 47.11597 | 10.69195 | 29341 ft | 428 kts | 157° |
| 2026-04-26 08:28 | 47.08828 | 10.70703 | 29684 ft | 430 kts | 158° |
| 2026-04-26 08:28 | 47.06024 | 10.72252 | 30031 ft | 432 kts | 155° |
| 2026-04-26 08:29 | 47.03340 | 10.74230 | 30359 ft | 431 kts | 146° |
| 2026-04-26 08:29 | 47.00890 | 10.76752 | 30675 ft | 431 kts | 138° |
| 2026-04-26 08:29 | 46.98722 | 10.79771 | 30991 ft | 431 kts | 130° |
| 2026-04-26 08:29 | 46.96662 | 10.82977 | 31299 ft | 433 kts | 131° |
| 2026-04-26 08:30 | 46.94585 | 10.86168 | 31709 ft | 432 kts | 131° |
| 2026-04-26 08:30 | 46.92508 | 10.89332 | 32144 ft | 431 kts | 131° |
| 2026-04-26 08:30 | 46.90428 | 10.92485 | 32550 ft | 430 kts | 131° |
| 2026-04-26 08:30 | 46.88354 | 10.95626 | 32942 ft | 429 kts | 131° |
| 2026-04-26 08:31 | 46.86286 | 10.98763 | 33337 ft | 428 kts | 131° |
| 2026-04-26 08:31 | 46.84217 | 11.01899 | 33725 ft | 427 kts | 131° |
| 2026-04-26 08:31 | 46.82158 | 11.05022 | 34120 ft | 427 kts | 131° |
| 2026-04-26 08:31 | 46.80107 | 11.08142 | 34494 ft | 426 kts | 131° |
| 2026-04-26 08:32 | 46.78078 | 11.11286 | 34857 ft | 425 kts | 130° |
| 2026-04-26 08:32 | 46.76067 | 11.14437 | 35214 ft | 424 kts | 130° |
| 2026-04-26 08:32 | 46.74059 | 11.17588 | 35561 ft | 423 kts | 130° |
| 2026-04-26 08:32 | 46.72058 | 11.20721 | 35887 ft | 422 kts | 130° |
| 2026-04-26 08:33 | 46.70054 | 11.23853 | 36200 ft | 422 kts | 130° |
| 2026-04-26 08:33 | 46.68082 | 11.26927 | 36491 ft | 421 kts | 130° |
| 2026-04-26 08:33 | 46.66078 | 11.30039 | 36759 ft | 421 kts | 130° |
| 2026-04-26 08:33 | 46.64067 | 11.33147 | 36905 ft | 422 kts | 131° |
| 2026-04-26 08:34 | 46.60051 | 11.39330 | 36942 ft | 419 kts | 131° |
| 2026-04-26 08:34 | 46.56052 | 11.45491 | 36943 ft | 419 kts | 131° |
| 2026-04-26 08:35 | 46.52055 | 11.51645 | 36943 ft | 419 kts | 131° |
| 2026-04-26 08:35 | 46.48052 | 11.57788 | 36943 ft | 419 kts | 131° |
| 2026-04-26 08:36 | 46.44049 | 11.63917 | 36943 ft | 419 kts | 131° |
| 2026-04-26 08:36 | 46.40039 | 11.70045 | 36942 ft | 418 kts | 131° |
| 2026-04-26 08:37 | 46.35991 | 11.76121 | 36943 ft | 419 kts | 132° |
| 2026-04-26 08:37 | 46.31898 | 11.82052 | 36942 ft | 419 kts | 133° |
| 2026-04-26 08:38 | 46.27774 | 11.88004 | 36942 ft | 419 kts | 133° |
| 2026-04-26 08:38 | 46.23654 | 11.93958 | 36942 ft | 419 kts | 132° |
| 2026-04-26 08:39 | 46.19535 | 11.99919 | 36944 ft | 419 kts | 132° |
| 2026-04-26 08:39 | 46.15415 | 12.05874 | 36943 ft | 419 kts | 132° |
| 2026-04-26 08:40 | 46.11293 | 12.11814 | 36942 ft | 419 kts | 133° |
| 2026-04-26 08:40 | 46.07167 | 12.17743 | 36941 ft | 419 kts | 133° |
| 2026-04-26 08:41 | 46.03039 | 12.23666 | 36942 ft | 419 kts | 133° |
| 2026-04-26 08:41 | 45.98906 | 12.29573 | 36941 ft | 419 kts | 133° |
| 2026-04-26 08:42 | 45.94806 | 12.35439 | 36941 ft | 419 kts | 133° |
| 2026-04-26 08:42 | 45.90665 | 12.41347 | 36941 ft | 419 kts | 133° |
| 2026-04-26 08:43 | 45.86525 | 12.47231 | 36941 ft | 419 kts | 133° |
| 2026-04-26 08:43 | 45.82378 | 12.53109 | 36942 ft | 419 kts | 133° |
| 2026-04-26 08:44 | 45.78232 | 12.58983 | 36942 ft | 419 kts | 133° |
| 2026-04-26 08:44 | 45.74109 | 12.64810 | 36943 ft | 419 kts | 133° |
| 2026-04-26 08:45 | 45.69958 | 12.70667 | 36943 ft | 419 kts | 133° |
| 2026-04-26 08:45 | 45.65793 | 12.76510 | 36944 ft | 419 kts | 133° |
| 2026-04-26 08:46 | 45.61626 | 12.82349 | 36944 ft | 419 kts | 133° |
| 2026-04-26 08:46 | 45.57465 | 12.88179 | 36944 ft | 419 kts | 133° |
| 2026-04-26 08:47 | 45.53294 | 12.94002 | 36945 ft | 419 kts | 133° |
| 2026-04-26 08:47 | 45.49148 | 12.99775 | 36945 ft | 419 kts | 133° |
| 2026-04-26 08:48 | 45.44976 | 13.05575 | 36945 ft | 419 kts | 133° |
| 2026-04-26 08:48 | 45.40786 | 13.11393 | 36946 ft | 419 kts | 133° |
| 2026-04-26 08:49 | 45.36609 | 13.17188 | 36946 ft | 419 kts | 133° |
| 2026-04-26 08:49 | 45.32424 | 13.22968 | 36946 ft | 419 kts | 133° |
| 2026-04-26 08:50 | 45.28397 | 13.28879 | 36947 ft | 418 kts | 129° |
| 2026-04-26 08:50 | 45.24607 | 13.35140 | 36947 ft | 417 kts | 127° |
| 2026-04-26 08:51 | 45.18964 | 13.44551 | 36947 ft | 418 kts | 128° |
| 2026-04-26 08:52 | 45.15107 | 13.50717 | 36946 ft | 418 kts | 129° |
| 2026-04-26 08:52 | 45.11191 | 13.56819 | 36946 ft | 418 kts | 130° |
| 2026-04-26 08:53 | 45.07300 | 13.62871 | 36946 ft | 418 kts | 129° |
| 2026-04-26 08:53 | 45.03403 | 13.68969 | 36946 ft | 418 kts | 129° |
| 2026-04-26 08:54 | 44.99515 | 13.75071 | 36946 ft | 418 kts | 129° |
| 2026-04-26 08:54 | 44.95620 | 13.81164 | 36945 ft | 418 kts | 129° |
| 2026-04-26 08:55 | 44.91713 | 13.87254 | 36945 ft | 418 kts | 129° |
| 2026-04-26 08:55 | 44.87832 | 13.93294 | 36944 ft | 418 kts | 129° |
| 2026-04-26 08:56 | 44.83922 | 13.99358 | 36945 ft | 418 kts | 130° |
| 2026-04-26 08:56 | 44.80004 | 14.05413 | 36944 ft | 418 kts | 130° |
| 2026-04-26 08:57 | 44.76082 | 14.11462 | 36943 ft | 418 kts | 130° |
| 2026-04-26 08:57 | 44.72162 | 14.17496 | 36943 ft | 418 kts | 130° |
| 2026-04-26 08:58 | 44.68245 | 14.23530 | 36943 ft | 418 kts | 130° |
| 2026-04-26 08:58 | 44.64324 | 14.29547 | 36942 ft | 418 kts | 130° |
| 2026-04-26 08:59 | 44.60390 | 14.35560 | 36942 ft | 418 kts | 130° |
| 2026-04-26 08:59 | 44.56481 | 14.41520 | 36942 ft | 418 kts | 130° |
| 2026-04-26 09:00 | 44.52509 | 14.47467 | 36941 ft | 419 kts | 135° |
| 2026-04-26 09:00 | 44.48082 | 14.52802 | 36941 ft | 420 kts | 137° |
| 2026-04-26 09:01 | 44.43636 | 14.58109 | 36943 ft | 420 kts | 137° |
| 2026-04-26 09:01 | 44.39186 | 14.63403 | 36944 ft | 420 kts | 137° |
| 2026-04-26 09:02 | 44.34727 | 14.68686 | 36944 ft | 420 kts | 137° |
| 2026-04-26 09:02 | 44.30269 | 14.73969 | 36945 ft | 420 kts | 137° |
| 2026-04-26 09:03 | 44.25817 | 14.79247 | 36945 ft | 420 kts | 137° |
| 2026-04-26 09:03 | 44.21385 | 14.84476 | 36944 ft | 420 kts | 137° |
| 2026-04-26 09:04 | 44.16926 | 14.89727 | 36942 ft | 420 kts | 137° |
| 2026-04-26 09:04 | 44.12460 | 14.94967 | 36941 ft | 420 kts | 137° |
| 2026-04-26 09:05 | 44.07993 | 15.00206 | 36942 ft | 420 kts | 137° |
| 2026-04-26 09:05 | 44.03533 | 15.05443 | 36941 ft | 420 kts | 137° |
| 2026-04-26 09:06 | 43.99068 | 15.10662 | 36939 ft | 419 kts | 137° |
| 2026-04-26 09:06 | 43.94590 | 15.15861 | 36937 ft | 419 kts | 137° |
| 2026-04-26 09:07 | 43.90050 | 15.20950 | 36937 ft | 420 kts | 140° |
| 2026-04-26 09:07 | 43.85414 | 15.25895 | 36937 ft | 420 kts | 140° |
| 2026-04-26 09:08 | 43.80772 | 15.30816 | 36935 ft | 420 kts | 140° |
| 2026-04-26 09:08 | 43.76154 | 15.35761 | 36934 ft | 420 kts | 140° |
| 2026-04-26 09:09 | 43.71569 | 15.40686 | 36934 ft | 420 kts | 140° |
| 2026-04-26 09:09 | 43.66950 | 15.45627 | 36934 ft | 420 kts | 140° |
| 2026-04-26 09:10 | 43.62320 | 15.50556 | 36935 ft | 420 kts | 140° |
| 2026-04-26 09:10 | 43.57689 | 15.55490 | 36936 ft | 420 kts | 140° |
| 2026-04-26 09:11 | 43.53842 | 15.59577 | 36936 ft | 420 kts | 140° |
| 2026-04-26 09:11 | 43.49211 | 15.64484 | 36936 ft | 420 kts | 140° |
| 2026-04-26 09:12 | 43.44573 | 15.69393 | 36937 ft | 420 kts | 140° |
| 2026-04-26 09:12 | 43.39937 | 15.74286 | 36937 ft | 420 kts | 140° |
| 2026-04-26 09:13 | 43.35298 | 15.79182 | 36936 ft | 420 kts | 140° |
| 2026-04-26 09:13 | 43.30692 | 15.84031 | 36936 ft | 420 kts | 140° |
| 2026-04-26 09:14 | 43.26045 | 15.88899 | 36935 ft | 420 kts | 140° |
| 2026-04-26 09:14 | 43.21402 | 15.93763 | 36935 ft | 420 kts | 140° |
| 2026-04-26 09:15 | 43.16754 | 15.98627 | 36934 ft | 420 kts | 140° |
| 2026-04-26 09:15 | 43.12136 | 16.03448 | 36934 ft | 420 kts | 140° |
| 2026-04-26 09:16 | 43.07487 | 16.08284 | 36933 ft | 420 kts | 140° |
| 2026-04-26 09:16 | 43.02839 | 16.13115 | 36933 ft | 420 kts | 140° |
| 2026-04-26 09:17 | 42.98190 | 16.17942 | 36932 ft | 420 kts | 140° |
| 2026-04-26 09:17 | 42.93543 | 16.22766 | 36932 ft | 420 kts | 140° |
| 2026-04-26 09:18 | 42.88883 | 16.27581 | 36931 ft | 420 kts | 140° |
| 2026-04-26 09:18 | 42.84226 | 16.32383 | 36931 ft | 420 kts | 140° |
| 2026-04-26 09:19 | 42.79564 | 16.37170 | 36930 ft | 420 kts | 140° |
| 2026-04-26 09:19 | 42.74903 | 16.41960 | 36930 ft | 420 kts | 140° |
| 2026-04-26 09:20 | 42.70244 | 16.46749 | 36930 ft | 420 kts | 140° |
| 2026-04-26 09:20 | 42.65611 | 16.51495 | 36930 ft | 420 kts | 140° |
| 2026-04-26 09:21 | 42.60936 | 16.56265 | 36931 ft | 420 kts | 141° |
| 2026-04-26 09:21 | 42.56261 | 16.61029 | 36929 ft | 420 kts | 141° |
| 2026-04-26 09:22 | 42.51587 | 16.65783 | 36931 ft | 420 kts | 141° |
| 2026-04-26 09:22 | 42.46945 | 16.70507 | 36932 ft | 420 kts | 141° |
| 2026-04-26 09:23 | 42.42266 | 16.75256 | 36932 ft | 420 kts | 141° |
| 2026-04-26 09:23 | 42.37587 | 16.79985 | 36933 ft | 420 kts | 141° |
| 2026-04-26 09:24 | 42.32908 | 16.84710 | 36932 ft | 420 kts | 141° |
| 2026-04-26 09:24 | 42.28223 | 16.89429 | 36934 ft | 420 kts | 141° |
| 2026-04-26 09:25 | 42.23541 | 16.94146 | 36934 ft | 420 kts | 141° |
| 2026-04-26 09:25 | 42.18852 | 16.98852 | 36935 ft | 420 kts | 141° |
| 2026-04-26 09:26 | 42.14184 | 17.03525 | 36936 ft | 420 kts | 141° |
| 2026-04-26 09:26 | 42.09493 | 17.08228 | 36936 ft | 420 kts | 141° |
| 2026-04-26 09:27 | 42.04796 | 17.12920 | 36937 ft | 420 kts | 141° |
| 2026-04-26 09:27 | 42.00098 | 17.17600 | 36937 ft | 420 kts | 141° |
| 2026-04-26 09:28 | 41.95392 | 17.22269 | 36937 ft | 420 kts | 141° |
| 2026-04-26 09:28 | 41.90358 | 17.26289 | 36935 ft | 424 kts | 154° |
| 2026-04-26 09:29 | 41.84979 | 17.29418 | 36935 ft | 424 kts | 154° |
| 2026-04-26 09:29 | 41.79561 | 17.32578 | 36935 ft | 424 kts | 154° |
| 2026-04-26 09:30 | 41.74150 | 17.35731 | 36936 ft | 424 kts | 154° |
| 2026-04-26 09:30 | 41.68737 | 17.38882 | 36937 ft | 424 kts | 154° |
| 2026-04-26 09:31 | 41.63324 | 17.42027 | 36937 ft | 424 kts | 154° |
| 2026-04-26 09:31 | 41.57907 | 17.45158 | 36937 ft | 424 kts | 154° |
| 2026-04-26 09:32 | 41.52523 | 17.48272 | 36938 ft | 424 kts | 154° |
| 2026-04-26 09:32 | 41.47101 | 17.51400 | 36938 ft | 424 kts | 154° |
| 2026-04-26 09:33 | 41.41689 | 17.54526 | 36938 ft | 424 kts | 154° |
| 2026-04-26 09:33 | 41.36265 | 17.57640 | 36938 ft | 424 kts | 154° |
| 2026-04-26 09:34 | 41.30847 | 17.60749 | 36938 ft | 424 kts | 154° |
| 2026-04-26 09:34 | 41.25429 | 17.63856 | 36938 ft | 424 kts | 154° |
| 2026-04-26 09:35 | 41.20101 | 17.67182 | 36937 ft | 421 kts | 146° |
| 2026-04-26 09:35 | 41.15478 | 17.71817 | 36936 ft | 419 kts | 139° |
| 2026-04-26 09:36 | 41.10926 | 17.76636 | 36935 ft | 419 kts | 139° |
| 2026-04-26 09:36 | 41.06361 | 17.81458 | 36934 ft | 419 kts | 139° |
| 2026-04-26 09:37 | 41.01799 | 17.86272 | 36935 ft | 419 kts | 139° |
| 2026-04-26 09:37 | 40.97226 | 17.91070 | 36935 ft | 419 kts | 139° |
| 2026-04-26 09:38 | 40.92658 | 17.95864 | 36935 ft | 419 kts | 139° |
| 2026-04-26 09:38 | 40.88090 | 18.00654 | 36936 ft | 419 kts | 139° |
| 2026-04-26 09:39 | 40.83510 | 18.05442 | 36936 ft | 419 kts | 139° |
| 2026-04-26 09:39 | 40.78925 | 18.10219 | 36935 ft | 419 kts | 139° |
| 2026-04-26 09:40 | 40.74372 | 18.14954 | 36936 ft | 419 kts | 139° |
| 2026-04-26 09:40 | 40.69794 | 18.19723 | 36936 ft | 419 kts | 139° |
| 2026-04-26 09:41 | 40.65211 | 18.24487 | 36936 ft | 419 kts | 139° |
| 2026-04-26 09:41 | 40.60678 | 18.29252 | 36935 ft | 418 kts | 135° |
| 2026-04-26 09:42 | 40.56540 | 18.34608 | 36935 ft | 417 kts | 133° |
| 2026-04-26 09:42 | 40.52408 | 18.39979 | 36934 ft | 417 kts | 133° |
| 2026-04-26 09:43 | 40.48276 | 18.45327 | 36935 ft | 417 kts | 133° |
| 2026-04-26 09:43 | 40.44138 | 18.50669 | 36934 ft | 417 kts | 133° |
| 2026-04-26 09:44 | 40.40026 | 18.55982 | 36935 ft | 417 kts | 133° |
| 2026-04-26 09:44 | 40.35886 | 18.61318 | 36935 ft | 417 kts | 133° |
| 2026-04-26 09:45 | 40.31743 | 18.66650 | 36935 ft | 417 kts | 133° |
| 2026-04-26 09:45 | 40.27604 | 18.71975 | 36935 ft | 417 kts | 133° |
| 2026-04-26 09:46 | 40.23458 | 18.77292 | 36936 ft | 417 kts | 133° |
| 2026-04-26 09:46 | 40.19299 | 18.82605 | 36934 ft | 417 kts | 133° |
| 2026-04-26 09:47 | 40.15146 | 18.87915 | 36936 ft | 417 kts | 133° |
| 2026-04-26 09:47 | 40.11013 | 18.93184 | 36936 ft | 417 kts | 133° |
| 2026-04-26 09:48 | 40.06857 | 18.98476 | 36936 ft | 417 kts | 133° |
| 2026-04-26 09:48 | 40.03216 | 19.04321 | 36936 ft | 414 kts | 123° |
| 2026-04-26 09:49 | 39.99816 | 19.10380 | 36934 ft | 414 kts | 123° |
| 2026-04-26 09:49 | 39.96409 | 19.16445 | 36935 ft | 414 kts | 124° |
| 2026-04-26 09:50 | 39.93011 | 19.22454 | 36936 ft | 414 kts | 124° |
| 2026-04-26 09:50 | 39.89583 | 19.28503 | 36936 ft | 414 kts | 124° |
| 2026-04-26 09:51 | 39.86159 | 19.34544 | 36936 ft | 414 kts | 124° |
| 2026-04-26 09:51 | 39.82757 | 19.40541 | 36937 ft | 414 kts | 124° |
| 2026-04-26 09:52 | 39.79329 | 19.46559 | 36937 ft | 414 kts | 124° |
| 2026-04-26 09:52 | 39.74178 | 19.55590 | 36937 ft | 414 kts | 124° |
| 2026-04-26 09:53 | 39.70736 | 19.61596 | 36938 ft | 414 kts | 124° |
| 2026-04-26 09:53 | 39.67283 | 19.67605 | 36937 ft | 414 kts | 124° |
| 2026-04-26 09:54 | 39.63840 | 19.73597 | 36938 ft | 414 kts | 124° |
| 2026-04-26 09:54 | 39.60419 | 19.79555 | 36939 ft | 414 kts | 124° |
| 2026-04-26 09:55 | 39.56968 | 19.85541 | 36939 ft | 414 kts | 124° |
| 2026-04-26 09:55 | 39.53513 | 19.91520 | 36940 ft | 414 kts | 124° |
| 2026-04-26 09:56 | 39.50054 | 19.97491 | 36939 ft | 414 kts | 124° |
| 2026-04-26 09:56 | 39.46592 | 20.03461 | 36940 ft | 415 kts | 124° |
| 2026-04-26 09:57 | 39.42725 | 20.09008 | 36940 ft | 418 kts | 138° |
| 2026-04-26 09:57 | 39.38201 | 20.13689 | 36940 ft | 419 kts | 139° |
| 2026-04-26 09:58 | 39.33647 | 20.18391 | 36940 ft | 419 kts | 139° |
| 2026-04-26 09:58 | 39.29093 | 20.23094 | 36940 ft | 419 kts | 139° |
| 2026-04-26 09:59 | 39.25309 | 20.26999 | 36940 ft | 419 kts | 139° |
| 2026-04-26 09:59 | 39.19982 | 20.32488 | 36940 ft | 419 kts | 139° |
| 2026-04-26 10:00 | 39.15427 | 20.37180 | 36942 ft | 419 kts | 139° |
| 2026-04-26 10:00 | 39.10873 | 20.41868 | 36944 ft | 419 kts | 139° |
| 2026-04-26 10:01 | 39.06307 | 20.46547 | 36944 ft | 419 kts | 139° |
| 2026-04-26 10:01 | 39.01727 | 20.51191 | 36944 ft | 419 kts | 140° |
| 2026-04-26 10:02 | 38.97893 | 20.55012 | 36943 ft | 419 kts | 140° |
| 2026-04-26 10:02 | 38.93271 | 20.59590 | 36943 ft | 419 kts | 140° |
| 2026-04-26 10:03 | 38.88657 | 20.64166 | 36942 ft | 419 kts | 140° |
| 2026-04-26 10:03 | 38.84068 | 20.68789 | 36942 ft | 419 kts | 139° |
| 2026-04-26 10:04 | 38.79568 | 20.73455 | 36943 ft | 419 kts | 138° |
| 2026-04-26 10:04 | 38.75036 | 20.78151 | 36943 ft | 419 kts | 139° |
| 2026-04-26 10:05 | 38.70488 | 20.82811 | 36943 ft | 419 kts | 139° |
| 2026-04-26 10:05 | 38.65929 | 20.87473 | 36944 ft | 419 kts | 139° |
| 2026-04-26 10:06 | 38.61369 | 20.92127 | 36944 ft | 419 kts | 139° |
| 2026-04-26 10:06 | 38.56856 | 20.96834 | 36945 ft | 418 kts | 136° |
| 2026-04-26 10:07 | 38.52513 | 21.01779 | 36946 ft | 418 kts | 135° |
| 2026-04-26 10:07 | 38.48238 | 21.06735 | 36946 ft | 418 kts | 135° |
| 2026-04-26 10:08 | 38.43886 | 21.11675 | 36947 ft | 418 kts | 136° |
| 2026-04-26 10:08 | 38.39511 | 21.16570 | 36948 ft | 418 kts | 136° |
| 2026-04-26 10:09 | 38.35131 | 21.21457 | 36949 ft | 418 kts | 136° |
| 2026-04-26 10:09 | 38.30756 | 21.26353 | 36949 ft | 418 kts | 136° |
| 2026-04-26 10:10 | 38.26381 | 21.31248 | 36950 ft | 418 kts | 136° |
| 2026-04-26 10:10 | 38.22032 | 21.36107 | 36951 ft | 419 kts | 136° |
| 2026-04-26 10:11 | 38.17645 | 21.40985 | 36952 ft | 419 kts | 136° |
| 2026-04-26 10:11 | 38.13311 | 21.45921 | 36952 ft | 418 kts | 134° |
| 2026-04-26 10:12 | 38.09140 | 21.51068 | 36952 ft | 418 kts | 133° |
| 2026-04-26 10:12 | 38.05004 | 21.56245 | 36953 ft | 418 kts | 133° |
| 2026-04-26 10:13 | 38.00828 | 21.61368 | 36952 ft | 418 kts | 134° |
| 2026-04-26 10:13 | 37.96624 | 21.66453 | 36953 ft | 418 kts | 134° |
| 2026-04-26 10:14 | 37.92422 | 21.71537 | 36952 ft | 418 kts | 134° |
| 2026-04-26 10:14 | 37.88250 | 21.76592 | 36952 ft | 418 kts | 134° |
| 2026-04-26 10:15 | 37.84048 | 21.81679 | 36952 ft | 418 kts | 134° |
| 2026-04-26 10:15 | 37.79848 | 21.86751 | 36950 ft | 417 kts | 134° |
| 2026-04-26 10:16 | 37.75644 | 21.91814 | 36950 ft | 417 kts | 134° |
| 2026-04-26 10:16 | 37.71442 | 21.96876 | 36949 ft | 417 kts | 134° |
| 2026-04-26 10:17 | 37.67237 | 22.01931 | 36948 ft | 417 kts | 134° |
| 2026-04-26 10:17 | 37.63031 | 22.06983 | 36947 ft | 417 kts | 134° |
| 2026-04-26 10:18 | 37.58819 | 22.12025 | 36947 ft | 417 kts | 134° |
| 2026-04-26 10:18 | 37.54609 | 22.17058 | 36947 ft | 417 kts | 134° |
| 2026-04-26 10:19 | 37.50399 | 22.22091 | 36946 ft | 417 kts | 134° |
| 2026-04-26 10:19 | 37.46177 | 22.27121 | 36945 ft | 417 kts | 134° |
| 2026-04-26 10:20 | 37.41989 | 22.32098 | 36944 ft | 417 kts | 134° |
| 2026-04-26 10:20 | 37.37666 | 22.36969 | 36942 ft | 418 kts | 138° |
| 2026-04-26 10:21 | 37.33098 | 22.41511 | 36943 ft | 419 kts | 140° |
| 2026-04-26 10:21 | 37.28487 | 22.45979 | 36942 ft | 419 kts | 140° |
| 2026-04-26 10:22 | 37.23917 | 22.50512 | 36942 ft | 419 kts | 139° |
| 2026-04-26 10:22 | 37.19367 | 22.55085 | 36944 ft | 419 kts | 139° |
| 2026-04-26 10:23 | 37.14817 | 22.59645 | 36943 ft | 419 kts | 139° |
| 2026-04-26 10:23 | 37.10258 | 22.64196 | 36943 ft | 418 kts | 139° |
| 2026-04-26 10:24 | 37.05703 | 22.68735 | 36943 ft | 419 kts | 139° |
| 2026-04-26 10:24 | 37.01166 | 22.73246 | 36790 ft | 421 kts | 139° |
| 2026-04-26 10:25 | 36.98870 | 22.75523 | 36333 ft | 420 kts | 139° |
| 2026-04-26 10:25 | 36.96584 | 22.77786 | 35884 ft | 419 kts | 139° |
| 2026-04-26 10:25 | 36.94303 | 22.80044 | 35435 ft | 417 kts | 139° |
| 2026-04-26 10:25 | 36.92034 | 22.82292 | 34984 ft | 415 kts | 139° |
| 2026-04-26 10:26 | 36.89780 | 22.84524 | 34535 ft | 412 kts | 139° |
| 2026-04-26 10:26 | 36.87539 | 22.86742 | 34085 ft | 410 kts | 139° |
| 2026-04-26 10:26 | 36.85310 | 22.88946 | 33635 ft | 407 kts | 139° |
| 2026-04-26 10:26 | 36.83094 | 22.91134 | 33185 ft | 404 kts | 139° |
| 2026-04-26 10:27 | 36.80894 | 22.93301 | 32732 ft | 402 kts | 139° |
| 2026-04-26 10:27 | 36.78708 | 22.95456 | 32283 ft | 399 kts | 139° |
| 2026-04-26 10:27 | 36.76540 | 22.97595 | 31832 ft | 396 kts | 139° |
| 2026-04-26 10:27 | 36.74385 | 22.99721 | 31383 ft | 393 kts | 139° |
| 2026-04-26 10:28 | 36.72247 | 23.01829 | 30933 ft | 391 kts | 139° |
| 2026-04-26 10:28 | 36.70117 | 23.03927 | 30482 ft | 388 kts | 139° |
| 2026-04-26 10:28 | 36.68006 | 23.06004 | 30032 ft | 386 kts | 139° |
| 2026-04-26 10:28 | 36.65902 | 23.08070 | 29581 ft | 384 kts | 139° |
| 2026-04-26 10:29 | 36.63810 | 23.10124 | 29131 ft | 382 kts | 139° |
| 2026-04-26 10:29 | 36.61730 | 23.12163 | 28681 ft | 380 kts | 139° |
| 2026-04-26 10:29 | 36.59656 | 23.14193 | 28231 ft | 378 kts | 139° |
| 2026-04-26 10:29 | 36.57621 | 23.16185 | 27786 ft | 377 kts | 139° |
| 2026-04-26 10:30 | 36.55564 | 23.18198 | 27336 ft | 376 kts | 139° |
| 2026-04-26 10:30 | 36.53511 | 23.20204 | 26884 ft | 374 kts | 139° |
| 2026-04-26 10:30 | 36.51466 | 23.22201 | 26434 ft | 373 kts | 139° |
| 2026-04-26 10:30 | 36.49427 | 23.24192 | 25983 ft | 372 kts | 139° |
| 2026-04-26 10:31 | 36.47393 | 23.26175 | 25532 ft | 371 kts | 139° |
| 2026-04-26 10:31 | 36.45362 | 23.28154 | 25080 ft | 369 kts | 139° |
| 2026-04-26 10:31 | 36.43347 | 23.30117 | 24627 ft | 367 kts | 139° |
| 2026-04-26 10:31 | 36.41340 | 23.32070 | 24178 ft | 365 kts | 139° |
| 2026-04-26 10:32 | 36.39344 | 23.34013 | 23728 ft | 363 kts | 139° |
| 2026-04-26 10:32 | 36.37359 | 23.35944 | 23258 ft | 361 kts | 139° |
| 2026-04-26 10:32 | 36.35384 | 23.37863 | 22825 ft | 360 kts | 139° |
| 2026-04-26 10:32 | 36.33420 | 23.39770 | 22373 ft | 358 kts | 139° |
| 2026-04-26 10:33 | 36.31463 | 23.41668 | 21924 ft | 356 kts | 139° |
| 2026-04-26 10:33 | 36.29516 | 23.43559 | 21473 ft | 355 kts | 139° |
| 2026-04-26 10:33 | 36.27574 | 23.45443 | 21024 ft | 353 kts | 139° |
| 2026-04-26 10:33 | 36.25648 | 23.47312 | 20577 ft | 351 kts | 139° |
| 2026-04-26 10:34 | 36.23728 | 23.49176 | 20116 ft | 350 kts | 139° |
| 2026-04-26 10:34 | 36.21842 | 23.51007 | 19675 ft | 348 kts | 139° |
| 2026-04-26 10:34 | 36.19939 | 23.52852 | 19224 ft | 347 kts | 139° |
| 2026-04-26 10:34 | 36.18044 | 23.54686 | 18776 ft | 345 kts | 139° |
| 2026-04-26 10:35 | 36.16155 | 23.56513 | 18322 ft | 344 kts | 139° |
| 2026-04-26 10:35 | 36.14272 | 23.58330 | 17874 ft | 343 kts | 139° |
| 2026-04-26 10:35 | 36.12398 | 23.60142 | 17420 ft | 341 kts | 139° |
| 2026-04-26 10:35 | 36.10531 | 23.61948 | 16962 ft | 340 kts | 139° |
| 2026-04-26 10:36 | 36.08670 | 23.63751 | 16517 ft | 339 kts | 139° |
| 2026-04-26 10:36 | 36.06816 | 23.65543 | 16066 ft | 338 kts | 139° |
| 2026-04-26 10:36 | 36.04966 | 23.67326 | 15618 ft | 337 kts | 139° |
| 2026-04-26 10:36 | 36.03119 | 23.69101 | 15164 ft | 336 kts | 139° |
| 2026-04-26 10:37 | 36.01277 | 23.70869 | 14713 ft | 335 kts | 139° |
| 2026-04-26 10:37 | 35.99438 | 23.72630 | 14264 ft | 334 kts | 139° |
| 2026-04-26 10:37 | 35.97586 | 23.74356 | 13804 ft | 333 kts | 140° |
| 2026-04-26 10:37 | 35.95724 | 23.76051 | 13356 ft | 332 kts | 141° |
| 2026-04-26 10:38 | 35.93868 | 23.77724 | 12907 ft | 330 kts | 141° |
| 2026-04-26 10:38 | 35.92042 | 23.79368 | 12470 ft | 328 kts | 141° |
| 2026-04-26 10:38 | 35.90216 | 23.81016 | 12161 ft | 322 kts | 141° |
| 2026-04-26 10:38 | 35.88429 | 23.82633 | 11855 ft | 316 kts | 140° |
| 2026-04-26 10:39 | 35.86676 | 23.84223 | 11553 ft | 310 kts | 140° |
| 2026-04-26 10:39 | 35.84950 | 23.85787 | 11252 ft | 305 kts | 140° |
| 2026-04-26 10:39 | 35.83255 | 23.87321 | 10951 ft | 300 kts | 140° |
| 2026-04-26 10:39 | 35.81585 | 23.88833 | 10685 ft | 295 kts | 140° |
| 2026-04-26 10:40 | 35.79950 | 23.90314 | 10434 ft | 289 kts | 140° |
| 2026-04-26 10:40 | 35.78342 | 23.91771 | 10183 ft | 286 kts | 140° |
| 2026-04-26 10:40 | 35.76748 | 23.93217 | 9931 ft | 284 kts | 140° |
| 2026-04-26 10:40 | 35.75165 | 23.94650 | 9684 ft | 281 kts | 140° |
| 2026-04-26 10:41 | 35.73600 | 23.96088 | 9431 ft | 280 kts | 139° |
| 2026-04-26 10:41 | 35.72051 | 23.97530 | 9181 ft | 279 kts | 139° |
| 2026-04-26 10:41 | 35.70513 | 23.98964 | 8931 ft | 278 kts | 139° |
| 2026-04-26 10:41 | 35.68974 | 24.00396 | 8680 ft | 277 kts | 139° |
| 2026-04-26 10:42 | 35.67441 | 24.01821 | 8430 ft | 276 kts | 139° |
| 2026-04-26 10:42 | 35.66428 | 24.02763 | 8263 ft | 275 kts | 139° |
| 2026-04-26 10:42 | 35.64390 | 24.04654 | 7951 ft | 274 kts | 139° |
| 2026-04-26 10:42 | 35.62871 | 24.06063 | 7750 ft | 273 kts | 139° |
| 2026-04-26 10:43 | 35.61355 | 24.07466 | 7550 ft | 272 kts | 139° |
| 2026-04-26 10:43 | 35.59844 | 24.08865 | 7349 ft | 271 kts | 139° |
| 2026-04-26 10:43 | 35.58336 | 24.10259 | 7149 ft | 271 kts | 139° |
| 2026-04-26 10:43 | 35.56850 | 24.11631 | 6951 ft | 270 kts | 139° |
| 2026-04-26 10:44 | 35.55350 | 24.13015 | 6799 ft | 269 kts | 139° |
| 2026-04-26 10:44 | 35.53865 | 24.14385 | 6652 ft | 262 kts | 139° |
| 2026-04-26 10:44 | 35.52497 | 24.15816 | 6497 ft | 256 kts | 129° |
| 2026-04-26 10:44 | 35.51422 | 24.17522 | 6347 ft | 251 kts | 118° |
| 2026-04-26 10:45 | 35.50509 | 24.19341 | 6196 ft | 250 kts | 117° |
| 2026-04-26 10:45 | 35.49590 | 24.21151 | 6046 ft | 250 kts | 118° |
| 2026-04-26 10:45 | 35.48669 | 24.22957 | 5895 ft | 249 kts | 118° |
| 2026-04-26 10:45 | 35.47750 | 24.24756 | 5744 ft | 249 kts | 118° |
| 2026-04-26 10:46 | 35.46829 | 24.26551 | 5598 ft | 248 kts | 118° |
| 2026-04-26 10:46 | 35.45911 | 24.28341 | 5444 ft | 247 kts | 118° |
| 2026-04-26 10:46 | 35.44997 | 24.30127 | 5294 ft | 247 kts | 118° |
| 2026-04-26 10:46 | 35.44083 | 24.31908 | 5143 ft | 246 kts | 118° |
| 2026-04-26 10:47 | 35.43171 | 24.33687 | 4993 ft | 246 kts | 118° |
| 2026-04-26 10:47 | 35.42273 | 24.35440 | 4845 ft | 245 kts | 118° |
| 2026-04-26 10:47 | 35.41363 | 24.37208 | 4690 ft | 243 kts | 118° |
| 2026-04-26 10:47 | 35.40481 | 24.38920 | 4546 ft | 232 kts | 118° |
| 2026-04-26 10:48 | 35.39730 | 24.40606 | 4392 ft | 218 kts | 105° |
| 2026-04-26 10:48 | 35.39431 | 24.42357 | 4254 ft | 203 kts | 88° |
| 2026-04-26 10:48 | 35.39547 | 24.44022 | 4131 ft | 192 kts | 73° |
| 2026-04-26 10:48 | 35.40004 | 24.45539 | 4005 ft | 188 kts | 59° |
| 2026-04-26 10:49 | 35.40764 | 24.46829 | 3880 ft | 187 kts | 45° |
| 2026-04-26 10:49 | 35.41773 | 24.47825 | 3759 ft | 186 kts | 31° |
| 2026-04-26 10:49 | 35.42957 | 24.48463 | 3669 ft | 187 kts | 17° |
| 2026-04-26 10:49 | 35.44250 | 24.48698 | 3593 ft | 190 kts | 3° |
| 2026-04-26 10:50 | 35.45566 | 24.48499 | 3518 ft | 193 kts | 348° |
| 2026-04-26 10:50 | 35.46404 | 24.48119 | 3468 ft | 195 kts | 338° |
| 2026-04-26 10:50 | 35.47878 | 24.46780 | 3379 ft | 201 kts | 316° |
| 2026-04-26 10:50 | 35.48673 | 24.45348 | 3349 ft | 206 kts | 300° |
| 2026-04-26 10:51 | 35.49100 | 24.43685 | 3328 ft | 204 kts | 283° |
| 2026-04-26 10:51 | 35.49435 | 24.40259 | 3200 ft | 201 kts | 282° |
| 2026-04-26 10:51 | 35.49625 | 24.38561 | 3120 ft | 201 kts | 282° |
| 2026-04-26 10:52 | 35.49819 | 24.36888 | 3033 ft | 200 kts | 282° |
| 2026-04-26 10:52 | 35.50010 | 24.35229 | 2939 ft | 190 kts | 282° |
| 2026-04-26 10:52 | 35.50191 | 24.33669 | 2858 ft | 179 kts | 283° |
| 2026-04-26 10:52 | 35.50366 | 24.32186 | 2785 ft | 173 kts | 283° |
| 2026-04-26 10:53 | 35.50538 | 24.30731 | 2654 ft | 173 kts | 283° |
| 2026-04-26 10:53 | 35.50709 | 24.29266 | 2397 ft | 173 kts | 283° |
| 2026-04-26 10:53 | 35.50871 | 24.27864 | 2159 ft | 158 kts | 283° |
| 2026-04-26 10:54 | 35.51108 | 24.25775 | 1820 ft | 143 kts | 284° |
| 2026-04-26 10:54 | 35.51247 | 24.24581 | 1632 ft | 140 kts | 284° |
| 2026-04-26 10:54 | 35.51385 | 24.23402 | 1446 ft | 139 kts | 284° |
| 2026-04-26 10:54 | 35.51519 | 24.22230 | 1266 ft | 138 kts | 284° |
| 2026-04-26 10:55 | 35.51627 | 24.21053 | 1105 ft | 139 kts | 281° |
| 2026-04-26 10:55 | 35.51725 | 24.19874 | 938 ft | 138 kts | 284° |
| 2026-04-26 10:55 | 35.51950 | 24.18744 | 806 ft | 135 kts | 295° |
| 2026-04-26 10:55 | 35.52278 | 24.17673 | 688 ft | 133 kts | 298° |
| 2026-04-26 10:56 | 35.52633 | 24.16626 | 530 ft | 132 kts | 292° |
| 2026-04-26 10:56 | 35.52942 | 24.15691 | 494 ft | 98 kts | 291° |
| 2026-04-26 10:56 | 35.53133 | 24.15092 | 482 ft | 60 kts | 291° |
| 2026-04-26 10:56 | 35.53269 | 24.14672 | 491 ft | 46 kts | 291° |
| 2026-04-26 10:57 | 35.53375 | 24.14346 | 497 ft | 36 kts | 291° |
| 2026-04-26 10:57 | 35.53486 | 24.14288 | 498 ft | 19 kts | 21° |
| 2026-04-26 10:57 | 35.53615 | 24.14349 | 488 ft | 21 kts | 21° |
| 2026-04-26 10:57 | 35.53695 | 24.14312 | 496 ft | 14 kts | 295° |
| 2026-04-26 10:58 | 35.53732 | 24.14198 | 496 ft | 10 kts | 293° |
| 2026-04-26 10:58 | 35.53790 | 24.14196 | 498 ft | 10 kts | 22° |
| 2026-04-26 10:58 | 35.53822 | 24.14212 | 498 ft | 0 kts | 21° |